Time;durP1;ratioP1;P1;durP2;ratioP2;P2;SDS_P1;SDS_P2;PMS_P1;PMS_P2;Temp;Humidity;BMP_temperature;BMP_pressure;BME280_temperature;BME280_humidity;BME280_pressure;Samples;Min_cycle;Max_cycle;Signal;HPM_P1;HPM_P2
2023/07/19 00:01:11;;;;;;;8.20;3.90;;;;;;;;;;5010645;28;20269;-78
2023/07/19 00:03:37;;;;;;;4.97;4.00;;;;;;;;;;4993076;28;20176;-78
2023/07/19 00:06:03;;;;;;;5.27;4.17;;;;;;;;;;4986477;28;20175;-78
2023/07/19 00:08:31;;;;;;;5.23;3.40;;;;;;;;;;5010082;28;20191;-78
2023/07/19 00:10:57;;;;;;;4.47;3.47;;;;;;;;;;5010515;28;20237;-78
2023/07/19 00:13:24;;;;;;;6.63;3.77;;;;;;;;;;5008235;28;20183;-78
2023/07/19 00:15:50;;;;;;;4.20;3.80;;;;;;;;;;4990573;28;20198;-78
2023/07/19 00:18:16;;;;;;;5.73;3.70;;;;;;;;;;4991128;28;20646;-78
2023/07/19 00:20:42;;;;;;;5.70;3.93;;;;;;;;;;4980453;28;20577;-78
2023/07/19 00:23:08;;;;;;;5.87;4.13;;;;;;;;;;4990146;28;20523;-78
2023/07/19 00:25:34;;;;;;;5.03;3.87;;;;;;;;;;4990379;28;20273;-78
2023/07/19 00:28:00;;;;;;;4.93;4.00;;;;;;;;;;5007524;28;20195;-78
2023/07/19 00:30:27;;;;;;;5.07;3.90;;;;;;;;;;4989812;28;20293;-78
2023/07/19 00:32:53;;;;;;;4.93;3.73;;;;;;;;;;5006411;28;20749;-78
2023/07/19 00:35:19;;;;;;;4.77;3.60;;;;;;;;;;4989056;28;20792;-78
2023/07/19 00:37:46;;;;;;;5.10;3.80;;;;;;;;;;5007972;28;20215;-78
2023/07/19 00:40:12;;;;;;;4.60;3.50;;;;;;;;;;4989735;28;20563;-78
2023/07/19 00:42:38;;;;;;;7.57;3.90;;;;;;;;;;4990289;28;20218;-78
2023/07/19 00:45:04;;;;;;;4.73;3.90;;;;;;;;;;4990114;28;20183;-78
2023/07/19 00:47:32;;;;;;;5.13;3.97;;;;;;;;;;5007679;28;20191;-79
2023/07/19 00:50:00;;;;;;;4.23;3.70;;;;;;;;;;4990095;28;20191;-78
2023/07/19 00:52:26;;;;;;;4.57;3.53;;;;;;;;;;4992361;28;20550;-78
2023/07/19 00:54:52;;;;;;;3.93;3.47;;;;;;;;;;5007894;28;20836;-78
2023/07/19 00:57:18;;;;;;;5.37;3.97;;;;;;;;;;4991079;28;20608;-78
2023/07/19 00:59:45;;;;;;;4.67;3.90;;;;;;;;;;4990997;28;20187;-78
2023/07/19 01:02:11;;;;;;;4.13;3.60;;;;;;;;;;4990801;28;20218;-78
2023/07/19 01:04:38;;;;;;;5.50;3.53;;;;;;;;;;4990202;28;20191;-78
2023/07/19 01:07:04;;;;;;;4.87;3.77;;;;;;;;;;5009033;28;20179;-78
2023/07/19 01:09:30;;;;;;;4.27;3.80;;;;;;;;;;4989639;28;20201;-78
2023/07/19 01:11:57;;;;;;;4.80;3.90;;;;;;;;;;5009089;28;20285;-78
2023/07/19 01:14:23;;;;;;;8.13;4.20;;;;;;;;;;5009004;28;20685;-78
2023/07/19 01:16:50;;;;;;;6.37;3.93;;;;;;;;;;5008462;28;20236;-78
2023/07/19 01:19:17;;;;;;;4.40;4.00;;;;;;;;;;5008592;28;20187;-78
2023/07/19 01:21:43;;;;;;;5.70;4.00;;;;;;;;;;4991406;28;20215;-78
2023/07/19 01:24:09;;;;;;;4.53;3.90;;;;;;;;;;4990733;28;20282;-78
2023/07/19 01:26:35;;;;;;;4.60;4.00;;;;;;;;;;4957788;28;20261;-78
2023/07/19 01:29:01;;;;;;;5.37;4.10;;;;;;;;;;5006723;28;20195;-78
2023/07/19 01:31:27;;;;;;;4.20;3.80;;;;;;;;;;5008403;28;20237;-78
2023/07/19 01:33:54;;;;;;;5.10;4.30;;;;;;;;;;5008830;28;20282;-78
2023/07/19 01:36:21;;;;;;;6.20;4.03;;;;;;;;;;5008631;28;20183;-78
2023/07/19 01:38:47;;;;;;;4.67;3.93;;;;;;;;;;5008687;28;21874;-78
2023/07/19 01:41:13;;;;;;;5.60;4.20;;;;;;;;;;4993405;28;20218;-78
2023/07/19 01:43:39;;;;;;;4.03;3.60;;;;;;;;;;4992594;28;20195;-78
2023/07/19 01:46:06;;;;;;;7.50;3.83;;;;;;;;;;4995507;28;20179;-78
2023/07/19 01:48:33;;;;;;;9.03;3.80;;;;;;;;;;4976456;28;20191;-78
2023/07/19 01:50:59;;;;;;;5.47;4.10;;;;;;;;;;5012753;28;20865;-78
2023/07/19 01:53:26;;;;;;;4.80;3.53;;;;;;;;;;5012722;28;20233;-78
2023/07/19 01:55:53;;;;;;;4.97;4.13;;;;;;;;;;4979063;28;20187;-78
2023/07/19 01:58:19;;;;;;;4.70;4.10;;;;;;;;;;4995282;28;20215;-78
2023/07/19 02:00:45;;;;;;;4.90;4.07;;;;;;;;;;4994593;28;20210;-78
2023/07/19 02:03:12;;;;;;;5.63;4.27;;;;;;;;;;5012836;28;20210;-78
2023/07/19 02:05:38;;;;;;;5.20;4.03;;;;;;;;;;4992262;28;20215;-78
2023/07/19 02:08:05;;;;;;;5.13;4.20;;;;;;;;;;5014339;28;20183;-78
2023/07/19 02:10:33;;;;;;;5.93;4.00;;;;;;;;;;4994304;28;20233;-78
2023/07/19 02:12:59;;;;;;;4.60;4.10;;;;;;;;;;5012454;28;20222;-78
2023/07/19 02:15:26;;;;;;;4.27;3.67;;;;;;;;;;4994348;28;20194;-78
2023/07/19 02:17:52;;;;;;;6.07;4.10;;;;;;;;;;5010933;28;20190;-78
2023/07/19 02:20:19;;;;;;;4.77;4.00;;;;;;;;;;5012100;28;20214;-78
2023/07/19 02:22:46;;;;;;;6.10;4.37;;;;;;;;;;5012332;28;20207;-78
2023/07/19 02:25:12;;;;;;;8.27;4.40;;;;;;;;;;4976961;28;20206;-78
2023/07/19 02:27:38;;;;;;;4.73;3.90;;;;;;;;;;5014096;28;20649;-78
2023/07/19 02:30:05;;;;;;;4.27;3.80;;;;;;;;;;5013678;28;20183;-78
2023/07/19 02:32:31;;;;;;;4.70;3.70;;;;;;;;;;4995943;28;20191;-78
2023/07/19 02:34:57;;;;;;;7.37;3.93;;;;;;;;;;4992922;28;20199;-78
2023/07/19 02:37:24;;;;;;;5.10;3.83;;;;;;;;;;5010716;28;20197;-78
2023/07/19 02:39:50;;;;;;;5.67;4.20;;;;;;;;;;4992381;28;20623;-78
2023/07/19 02:42:16;;;;;;;5.10;3.60;;;;;;;;;;4991352;28;20298;-78
2023/07/19 02:44:42;;;;;;;6.00;4.20;;;;;;;;;;4990513;28;20277;-78
2023/07/19 02:47:08;;;;;;;5.30;4.10;;;;;;;;;;5010235;28;20191;-78
2023/07/19 02:49:34;;;;;;;5.43;4.13;;;;;;;;;;4992697;28;20187;-78
2023/07/19 02:52:01;;;;;;;4.93;4.03;;;;;;;;;;4991742;28;20301;-78
2023/07/19 02:54:27;;;;;;;4.40;4.00;;;;;;;;;;5009085;28;20824;-78
2023/07/19 02:56:53;;;;;;;4.27;3.70;;;;;;;;;;4992000;28;20217;-78
2023/07/19 02:59:19;;;;;;;6.50;4.07;;;;;;;;;;4982459;28;20183;-78
2023/07/19 03:01:45;;;;;;;4.93;4.30;;;;;;;;;;4992460;28;20210;-78
2023/07/19 03:04:12;;;;;;;5.27;4.20;;;;;;;;;;4992537;28;20214;-78
2023/07/19 03:06:38;;;;;;;4.83;4.13;;;;;;;;;;5009775;28;20183;-78
2023/07/19 03:09:06;;;;;;;7.13;4.23;;;;;;;;;;5009591;28;20574;-78
2023/07/19 03:11:32;;;;;;;5.00;3.93;;;;;;;;;;5010182;28;20203;-78
2023/07/19 03:13:58;;;;;;;8.90;4.40;;;;;;;;;;4992331;28;20716;-78
2023/07/19 03:16:25;;;;;;;6.97;4.57;;;;;;;;;;4993470;28;20187;-78
2023/07/19 03:18:51;;;;;;;6.20;4.93;;;;;;;;;;4992215;28;20191;-78
2023/07/19 03:21:20;;;;;;;7.00;4.83;;;;;;;;;;4991917;28;20272;-78
2023/07/19 03:23:46;;;;;;;5.77;4.73;;;;;;;;;;4963343;28;20270;-78
2023/07/19 03:26:13;;;;;;;5.87;4.37;;;;;;;;;;5008509;28;20190;-78
2023/07/19 03:28:39;;;;;;;5.83;4.57;;;;;;;;;;5009263;28;20174;-78
2023/07/19 03:31:10;;;;;;;5.93;4.63;;;;;;;;;;4991422;28;20191;-78
2023/07/19 03:33:37;;;;;;;6.23;4.20;;;;;;;;;;5009891;28;20660;-78
2023/07/19 03:36:03;;;;;;;5.20;4.37;;;;;;;;;;5009209;28;20281;-78
2023/07/19 03:38:29;;;;;;;5.97;4.57;;;;;;;;;;4990679;28;20184;-78
2023/07/19 03:41:04;;;;;;;6.27;4.87;;;;;;;;;;4990570;28;20381;-78
2023/07/19 03:43:30;;;;;;;5.73;4.00;;;;;;;;;;4991169;28;20301;-78
2023/07/19 03:45:57;;;;;;;6.97;5.20;;;;;;;;;;4992118;28;20179;-78
2023/07/19 03:48:23;;;;;;;9.33;5.17;;;;;;;;;;4993110;28;20183;-78
2023/07/19 03:51:16;;;;;;;6.67;5.17;;;;;;;;;;4993085;28;20701;-78
2023/07/19 03:53:42;;;;;;;7.37;5.00;;;;;;;;;;4987552;28;20599;-78
2023/07/19 03:56:08;;;;;;;6.10;4.70;;;;;;;;;;4993336;28;20183;-78
2023/07/19 03:58:39;;;;;;;5.40;4.40;;;;;;;;;;5011118;28;20184;-78
2023/07/19 04:01:05;;;;;;;5.00;4.27;;;;;;;;;;5003051;28;20298;-78
2023/07/19 04:03:33;;;;;;;5.33;4.00;;;;;;;;;;4976031;28;20217;-78
2023/07/19 04:05:59;;;;;;;6.67;4.50;;;;;;;;;;4990323;28;20681;-78
2023/07/19 04:08:26;;;;;;;4.87;4.37;;;;;;;;;;4990876;28;20596;-78
2023/07/19 04:10:52;;;;;;;4.87;4.20;;;;;;;;;;4991660;28;20211;-78
2023/07/19 04:13:18;;;;;;;6.87;4.30;;;;;;;;;;4990581;28;20562;-78
2023/07/19 04:15:44;;;;;;;5.70;4.40;;;;;;;;;;4990067;28;20195;-78
2023/07/19 04:18:11;;;;;;;4.83;3.90;;;;;;;;;;4996379;28;20657;-78
2023/07/19 04:20:37;;;;;;;6.57;4.07;;;;;;;;;;5008490;28;20294;-78
2023/07/19 04:23:04;;;;;;;5.70;4.40;;;;;;;;;;4992679;28;20293;-78
2023/07/19 04:25:33;;;;;;;6.23;4.50;;;;;;;;;;4991705;28;20222;-78
2023/07/19 04:27:59;;;;;;;6.10;4.73;;;;;;;;;;4992024;28;20175;-78
2023/07/19 04:30:25;;;;;;;5.53;4.50;;;;;;;;;;4990611;28;20229;-78
2023/07/19 04:32:54;;;;;;;5.77;4.10;;;;;;;;;;4992094;28;20650;-78
2023/07/19 04:35:24;;;;;;;5.73;4.50;;;;;;;;;;4990869;28;20194;-78
2023/07/19 04:37:51;;;;;;;5.80;4.47;;;;;;;;;;4993522;28;20199;-78
2023/07/19 04:40:17;;;;;;;5.67;4.80;;;;;;;;;;4992186;28;20293;-78
2023/07/19 04:42:44;;;;;;;5.17;4.57;;;;;;;;;;5043929;22;20225;-76
2023/07/19 04:45:11;;;;;;;7.70;5.47;;;;;;;;;;5031642;28;20181;-75
2023/07/19 04:47:38;;;;;;;7.93;5.07;;;;;;;;;;5031581;28;20755;-75
2023/07/19 04:50:07;;;;;;;8.07;5.13;;;;;;;;;;5031194;28;20660;-76
2023/07/19 04:52:33;;;;;;;5.90;5.30;;;;;;;;;;5016000;28;20244;-75
2023/07/19 04:54:59;;;;;;;6.93;5.23;;;;;;;;;;5017507;28;20277;-76
2023/07/19 04:57:25;;;;;;;7.97;4.87;;;;;;;;;;5000866;28;20646;-75
2023/07/19 04:59:52;;;;;;;9.07;5.43;;;;;;;;;;5026005;28;20195;-75
2023/07/19 05:02:18;;;;;;;5.30;4.80;;;;;;;;;;5009938;28;20222;-75
2023/07/19 05:04:44;;;;;;;6.67;5.30;;;;;;;;;;5009458;28;20448;-75
2023/07/19 05:07:10;;;;;;;6.87;5.43;;;;;;;;;;5017214;28;20185;-75
2023/07/19 05:09:36;;;;;;;7.03;4.80;;;;;;;;;;5013340;28;20254;-75
2023/07/19 05:12:03;;;;;;;7.43;5.23;;;;;;;;;;5017316;28;20750;-75
2023/07/19 05:14:29;;;;;;;7.47;5.60;;;;;;;;;;5015806;28;20296;-77
2023/07/19 05:16:56;;;;;;;7.03;4.70;;;;;;;;;;5015419;28;20186;-77
2023/07/19 05:19:22;;;;;;;8.67;5.43;;;;;;;;;;5012976;28;20186;-76
2023/07/19 05:21:50;;;;;;;6.50;5.37;;;;;;;;;;5023425;28;20216;-78
2023/07/19 05:24:16;;;;;;;7.07;5.07;;;;;;;;;;5020257;28;20186;-78
2023/07/19 05:26:44;;;;;;;5.37;4.87;;;;;;;;;;5015948;28;20205;-78
2023/07/19 05:29:10;;;;;;;6.87;5.30;;;;;;;;;;5036856;28;20190;-78
2023/07/19 05:31:36;;;;;;;7.83;5.53;;;;;;;;;;5023608;28;20214;-78
2023/07/19 05:34:03;;;;;;;9.03;6.10;;;;;;;;;;5039781;28;20197;-78
2023/07/19 05:36:29;;;;;;;6.63;5.47;;;;;;;;;;5020979;28;20273;-78
2023/07/19 05:38:55;;;;;;;6.43;5.40;;;;;;;;;;5018143;28;20205;-78
2023/07/19 05:41:21;;;;;;;8.00;5.63;;;;;;;;;;5016535;28;20612;-79
2023/07/19 05:43:48;;;;;;;7.83;5.30;;;;;;;;;;5018866;28;20855;-78
2023/07/19 05:46:15;;;;;;;8.77;5.30;;;;;;;;;;5021967;28;20261;-79
2023/07/19 05:48:41;;;;;;;7.13;5.50;;;;;;;;;;5034353;28;20568;-78
2023/07/19 05:51:07;;;;;;;8.03;5.83;;;;;;;;;;5019949;28;20208;-79
2023/07/19 05:53:33;;;;;;;8.03;6.27;;;;;;;;;;5037040;28;20273;-79
2023/07/19 05:55:59;;;;;;;7.03;6.07;;;;;;;;;;5027132;28;20269;-78
2023/07/19 05:58:27;;;;;;;6.70;6.00;;;;;;;;;;5028849;28;20175;-77
2023/07/19 06:00:53;;;;;;;7.17;6.13;;;;;;;;;;5010535;28;20249;-76
2023/07/19 06:03:19;;;;;;;7.40;6.10;;;;;;;;;;5026171;28;20210;-76
2023/07/19 06:05:45;;;;;;;7.70;5.70;;;;;;;;;;5011758;28;20269;-76
2023/07/19 06:08:12;;;;;;;7.00;6.30;;;;;;;;;;5032352;28;20201;-76
2023/07/19 06:10:38;;;;;;;6.60;5.70;;;;;;;;;;5032179;28;20183;-76
2023/07/19 06:13:05;;;;;;;9.10;6.43;;;;;;;;;;5031578;28;20183;-76
2023/07/19 06:15:34;;;;;;;9.57;6.43;;;;;;;;;;5031895;28;20186;-77
2023/07/19 06:18:00;;;;;;;8.43;6.37;;;;;;;;;;5032154;28;20228;-76
2023/07/19 06:20:27;;;;;;;11.77;6.33;;;;;;;;;;5032406;28;20249;-76
2023/07/19 06:22:53;;;;;;;8.13;6.47;;;;;;;;;;5009237;28;20268;-75
2023/07/19 06:25:19;;;;;;;7.60;6.03;;;;;;;;;;5003742;28;20187;-76
2023/07/19 06:27:45;;;;;;;8.97;6.30;;;;;;;;;;5023053;28;20179;-76
2023/07/19 06:30:12;;;;;;;7.77;6.07;;;;;;;;;;5005986;28;20186;-76
2023/07/19 06:32:39;;;;;;;7.10;6.37;;;;;;;;;;5022793;28;20300;-76
2023/07/19 06:35:05;;;;;;;9.40;6.40;;;;;;;;;;5022636;28;20313;-76
2023/07/19 06:37:32;;;;;;;7.20;6.00;;;;;;;;;;5022004;28;20277;-76
2023/07/19 06:40:01;;;;;;;10.20;6.70;;;;;;;;;;5022330;28;20278;-76
2023/07/19 06:42:27;;;;;;;10.10;6.80;;;;;;;;;;5005305;28;20284;-75
2023/07/19 06:44:54;;;;;;;8.83;6.70;;;;;;;;;;5023087;28;20190;-76
2023/07/19 06:47:20;;;;;;;8.80;6.47;;;;;;;;;;5021559;28;20645;-76
2023/07/19 06:49:46;;;;;;;9.30;6.80;;;;;;;;;;5023008;28;20229;-76
2023/07/19 06:52:12;;;;;;;10.03;7.27;;;;;;;;;;5022257;28;20210;-76
2023/07/19 06:54:39;;;;;;;10.37;7.23;;;;;;;;;;5018751;28;20190;-76
2023/07/19 06:57:05;;;;;;;9.37;6.60;;;;;;;;;;5022071;28;20193;-76
2023/07/19 06:59:31;;;;;;;9.50;6.73;;;;;;;;;;5004577;28;20305;-76
2023/07/19 07:01:57;;;;;;;8.27;6.47;;;;;;;;;;5002991;28;20215;-76
2023/07/19 07:04:24;;;;;;;7.70;6.27;;;;;;;;;;5020956;28;20189;-76
2023/07/19 07:06:50;;;;;;;10.87;6.80;;;;;;;;;;5022796;28;20661;-76
2023/07/19 07:09:16;;;;;;;9.20;7.10;;;;;;;;;;5021584;28;20240;-76
2023/07/19 07:11:42;;;;;;;9.23;6.83;;;;;;;;;;5022551;28;20269;-76
2023/07/19 07:14:10;;;;;;;11.10;7.07;;;;;;;;;;5022599;28;20565;-76
2023/07/19 07:16:36;;;;;;;8.43;6.77;;;;;;;;;;5004227;28;20195;-76
2023/07/19 07:19:02;;;;;;;11.00;7.50;;;;;;;;;;5022253;28;21180;-76
2023/07/19 07:21:28;;;;;;;10.10;7.00;;;;;;;;;;5002942;28;20717;-76
2023/07/19 07:23:54;;;;;;;8.80;7.20;;;;;;;;;;5019996;28;20747;-76
2023/07/19 07:26:21;;;;;;;8.30;6.53;;;;;;;;;;5019211;28;20358;-76
2023/07/19 07:28:47;;;;;;;10.80;7.70;;;;;;;;;;5020076;28;20182;-76
2023/07/19 07:31:13;;;;;;;11.13;6.67;;;;;;;;;;5003357;28;20688;-76
2023/07/19 07:33:39;;;;;;;8.13;6.50;;;;;;;;;;5022689;28;20190;-76
2023/07/19 07:36:06;;;;;;;8.80;7.60;;;;;;;;;;5021748;28;20186;-76
2023/07/19 07:38:33;;;;;;;10.70;7.50;;;;;;;;;;5005248;28;20222;-76
2023/07/19 07:41:03;;;;;;;8.53;6.53;;;;;;;;;;5020748;28;20203;-76
2023/07/19 07:43:30;;;;;;;9.93;6.80;;;;;;;;;;5021582;28;20205;-76
2023/07/19 07:45:56;;;;;;;8.53;6.60;;;;;;;;;;5020971;28;20264;-76
2023/07/19 07:48:22;;;;;;;7.87;6.03;;;;;;;;;;5021285;28;20190;-76
2023/07/19 07:50:50;;;;;;;9.53;6.10;;;;;;;;;;5003434;28;20559;-76
2023/07/19 07:53:16;;;;;;;8.73;6.70;;;;;;;;;;5022912;28;20246;-76
2023/07/19 07:55:43;;;;;;;7.10;5.63;;;;;;;;;;5020499;28;20206;-76
2023/07/19 07:58:11;;;;;;;6.43;5.73;;;;;;;;;;5022097;28;20213;-76
2023/07/19 08:00:39;;;;;;;8.10;5.90;;;;;;;;;;5021288;28;20187;-76
2023/07/19 08:03:05;;;;;;;8.47;6.40;;;;;;;;;;5003665;28;20236;-76
2023/07/19 08:05:34;;;;;;;10.03;6.10;;;;;;;;;;5020649;28;20182;-76
2023/07/19 08:08:01;;;;;;;9.10;5.67;;;;;;;;;;5021361;28;20227;-76
2023/07/19 08:10:27;;;;;;;6.47;5.67;;;;;;;;;;5003926;28;20626;-76
2023/07/19 08:12:54;;;;;;;8.63;6.20;;;;;;;;;;5004815;28;20653;-76
2023/07/19 08:15:20;;;;;;;8.80;5.90;;;;;;;;;;5020986;28;20715;-76
2023/07/19 08:17:46;;;;;;;7.80;5.73;;;;;;;;;;4988340;28;20654;-76
2023/07/19 08:20:13;;;;;;;6.47;4.90;;;;;;;;;;5003307;28;20186;-76
2023/07/19 08:22:39;;;;;;;8.03;5.47;;;;;;;;;;5003750;28;20254;-76
2023/07/19 08:25:06;;;;;;;8.47;5.80;;;;;;;;;;5021193;28;20178;-76
2023/07/19 08:27:33;;;;;;;7.20;5.00;;;;;;;;;;5021995;28;20202;-76
2023/07/19 08:30:06;;;;;;;7.37;5.47;;;;;;;;;;5004092;28;20636;-76
2023/07/19 08:32:33;;;;;;;9.03;5.37;;;;;;;;;;5020836;28;20218;-76
2023/07/19 08:35:00;;;;;;;9.10;5.57;;;;;;;;;;5021021;28;20187;-76
2023/07/19 08:37:26;;;;;;;7.43;5.40;;;;;;;;;;5003160;28;20179;-76
2023/07/19 08:39:52;;;;;;;8.60;5.53;;;;;;;;;;5002428;28;20819;-76
2023/07/19 08:42:19;;;;;;;7.20;5.00;;;;;;;;;;5002238;28;20218;-76
2023/07/19 08:44:47;;;;;;;6.40;4.90;;;;;;;;;;5019899;28;20253;-76
2023/07/19 08:47:13;;;;;;;9.73;5.07;;;;;;;;;;5021064;28;20259;-77
2023/07/19 08:49:40;;;;;;;8.43;5.03;;;;;;;;;;5019601;28;20182;-76
2023/07/19 08:52:07;;;;;;;6.43;4.80;;;;;;;;;;5001694;28;20207;-76
2023/07/19 08:54:33;;;;;;;7.17;5.17;;;;;;;;;;5003317;28;20238;-76
2023/07/19 08:56:59;;;;;;;7.67;5.17;;;;;;;;;;5020548;28;20263;-77
2023/07/19 08:59:26;;;;;;;8.27;5.00;;;;;;;;;;5020297;28;20723;-77
2023/07/19 09:01:56;;;;;;;8.53;5.30;;;;;;;;;;5020472;28;20605;-76
2023/07/19 09:04:28;;;;;;;5.80;4.90;;;;;;;;;;5021375;28;20211;-76
2023/07/19 09:06:57;;;;;;;9.63;5.30;;;;;;;;;;5019645;28;20186;-76
2023/07/19 09:09:25;;;;;;;6.30;4.90;;;;;;;;;;5019980;28;20650;-76
2023/07/19 09:11:52;;;;;;;9.73;4.97;;;;;;;;;;5020279;28;20674;-76
2023/07/19 09:14:19;;;;;;;8.13;4.80;;;;;;;;;;5020970;28;20179;-77
2023/07/19 09:16:47;;;;;;;8.67;4.80;;;;;;;;;;5020527;28;20209;-77
2023/07/19 09:19:13;;;;;;;6.53;4.50;;;;;;;;;;5020448;28;20358;-76
2023/07/19 09:21:40;;;;;;;5.47;4.80;;;;;;;;;;5003532;28;20260;-76
2023/07/19 09:24:07;;;;;;;5.67;4.60;;;;;;;;;;5021137;28;20221;-76
2023/07/19 09:26:49;;;;;;;7.27;4.50;;;;;;;;;;5019356;28;20647;-76
2023/07/19 09:29:15;;;;;;;8.20;4.70;;;;;;;;;;5020102;28;20191;-76
2023/07/19 09:31:54;;;;;;;4.80;4.07;;;;;;;;;;5020746;28;20327;-76
2023/07/19 09:34:21;;;;;;;5.93;4.20;;;;;;;;;;5020103;28;21052;-76
2023/07/19 09:36:48;;;;;;;6.73;4.10;;;;;;;;;;5019991;28;20188;-76
2023/07/19 09:39:15;;;;;;;5.20;3.50;;;;;;;;;;5018647;28;20197;-76
2023/07/19 09:41:43;;;;;;;5.37;3.70;;;;;;;;;;5019524;28;20221;-76
2023/07/19 09:44:11;;;;;;;4.63;3.17;;;;;;;;;;5001753;28;20193;-76
2023/07/19 09:46:37;;;;;;;6.30;4.03;;;;;;;;;;5018334;28;20266;-77
2023/07/19 09:49:03;;;;;;;4.50;3.63;;;;;;;;;;5019823;28;20193;-76
2023/07/19 09:51:31;;;;;;;4.57;3.50;;;;;;;;;;5020306;28;20554;-76
2023/07/19 09:54:01;;;;;;;4.63;3.03;;;;;;;;;;5024337;28;20199;-77
2023/07/19 09:56:27;;;;;;;5.37;3.10;;;;;;;;;;5010484;28;20186;-77
2023/07/19 09:58:54;;;;;;;4.80;3.00;;;;;;;;;;5035451;28;20279;-76
2023/07/19 10:01:22;;;;;;;7.13;3.00;;;;;;;;;;5035282;28;20568;-77
2023/07/19 10:03:48;;;;;;;4.17;2.50;;;;;;;;;;5039133;28;20181;-77
2023/07/19 10:06:14;;;;;;;4.67;3.10;;;;;;;;;;5029164;28;20183;-77
2023/07/19 10:08:41;;;;;;;3.87;2.90;;;;;;;;;;5034612;28;20654;-77
2023/07/19 10:11:07;;;;;;;3.60;2.80;;;;;;;;;;5034237;28;20616;-77
2023/07/19 10:13:52;;;;;;;3.00;2.60;;;;;;;;;;5023462;28;20197;-77
2023/07/19 10:16:25;;;;;;;6.27;2.73;;;;;;;;;;5017601;28;20204;-75
2023/07/19 10:19:10;;;;;;;4.40;2.47;;;;;;;;;;5035433;28;20224;-73
2023/07/19 10:21:37;;;;;;;3.73;2.90;;;;;;;;;;5015604;28;20216;-74
2023/07/19 10:24:09;;;;;;;7.40;2.73;;;;;;;;;;5016205;28;20178;-77
2023/07/19 10:26:36;;;;;;;3.17;2.70;;;;;;;;;;5016719;28;20209;-74
2023/07/19 10:29:06;;;;;;;4.27;2.77;;;;;;;;;;5015127;28;20185;-75
2023/07/19 10:31:32;;;;;;;3.27;2.50;;;;;;;;;;5037507;28;20240;-76
2023/07/19 10:33:58;;;;;;;4.57;2.40;;;;;;;;;;5022909;28;20185;-76
2023/07/19 10:36:25;;;;;;;5.70;2.70;;;;;;;;;;5031883;28;20183;-80
2023/07/19 10:38:51;;;;;;;3.73;2.43;;;;;;;;;;5035404;28;20190;-76
2023/07/19 10:41:19;;;;;;;4.57;2.80;;;;;;;;;;5051919;22;20206;-75
2023/07/19 10:43:45;;;;;;;3.57;2.63;;;;;;;;;;5051964;28;20203;-76
2023/07/19 10:46:12;;;;;;;3.67;2.70;;;;;;;;;;5052067;28;20559;-76
2023/07/19 10:48:38;;;;;;;2.63;2.40;;;;;;;;;;5051848;28;20217;-77
2023/07/19 10:51:08;;;;;;;4.53;2.33;;;;;;;;;;5033597;28;20378;-77
2023/07/19 10:53:42;;;;;;;6.73;2.73;;;;;;;;;;5035879;28;20185;-77
2023/07/19 10:56:08;;;;;;;6.83;2.60;;;;;;;;;;5051628;28;20216;-76
2023/07/19 10:58:34;;;;;;;4.13;2.90;;;;;;;;;;5051389;28;20192;-76
2023/07/19 11:01:01;;;;;;;4.67;2.30;;;;;;;;;;5051291;28;20220;-81
2023/07/19 11:03:27;;;;;;;4.03;2.80;;;;;;;;;;5034925;28;20709;-77
2023/07/19 11:05:54;;;;;;;4.13;2.90;;;;;;;;;;5037188;28;20281;-74
2023/07/19 11:08:24;;;;;;;7.80;3.00;;;;;;;;;;5052191;28;20183;-77
2023/07/19 11:10:50;;;;;;;4.47;2.90;;;;;;;;;;5028069;28;20185;-77
2023/07/19 11:13:17;;;;;;;4.00;2.70;;;;;;;;;;5052590;28;20677;-82
2023/07/19 11:15:48;;;;;;;5.27;2.93;;;;;;;;;;5055941;28;20194;-81
2023/07/19 11:18:23;;;;;;;5.33;2.93;;;;;;;;;;5031393;28;20170;-81
2023/07/19 11:20:49;;;;;;;3.93;2.87;;;;;;;;;;5040184;28;20846;-81
2023/07/19 11:23:15;;;;;;;6.43;2.63;;;;;;;;;;5042299;28;20206;-81
2023/07/19 11:25:42;;;;;;;4.47;2.90;;;;;;;;;;5033397;28;20183;-78
2023/07/19 11:28:08;;;;;;;4.83;3.30;;;;;;;;;;5051067;28;20182;-78
2023/07/19 11:30:41;;;;;;;3.77;2.67;;;;;;;;;;5049968;28;20669;-78
2023/07/19 11:33:12;;;;;;;5.27;3.30;;;;;;;;;;5050949;28;20244;-78
2023/07/19 11:35:38;;;;;;;5.90;2.90;;;;;;;;;;5050924;28;20195;-78
2023/07/19 11:38:04;;;;;;;4.47;2.80;;;;;;;;;;5050665;28;20178;-79
2023/07/19 11:40:31;;;;;;;4.80;3.00;;;;;;;;;;5050740;28;20243;-79
2023/07/19 11:42:58;;;;;;;4.30;2.80;;;;;;;;;;5035317;28;20310;-78
2023/07/19 11:45:25;;;;;;;3.43;2.63;;;;;;;;;;5050782;28;20185;-78
2023/07/19 11:47:54;;;;;;;4.27;2.87;;;;;;;;;;5048687;28;20206;-78
2023/07/19 11:50:23;;;;;;;4.67;2.90;;;;;;;;;;5046153;28;20171;-78
2023/07/19 11:52:51;;;;;;;3.47;2.90;;;;;;;;;;5046612;28;20214;-78
2023/07/19 11:55:19;;;;;;;4.23;2.77;;;;;;;;;;5046218;28;20235;-78
2023/07/19 11:57:47;;;;;;;5.40;2.77;;;;;;;;;;5045793;28;20575;-78
2023/07/19 12:00:14;;;;;;;3.30;2.50;;;;;;;;;;5051099;28;20189;-78
2023/07/19 12:02:43;;;;;;;2.93;2.50;;;;;;;;;;5050650;28;20305;-78
2023/07/19 12:05:10;;;;;;;4.80;2.40;;;;;;;;;;5045022;28;20197;-78
2023/07/19 12:07:36;;;;;;;4.73;2.93;;;;;;;;;;5028741;28;20193;-78
2023/07/19 12:10:04;;;;;;;4.80;2.67;;;;;;;;;;5027638;28;20184;-78
2023/07/19 12:12:31;;;;;;;4.90;2.57;;;;;;;;;;5046312;28;20207;-78
2023/07/19 12:15:00;;;;;;;6.30;2.57;;;;;;;;;;5045292;28;20188;-78
2023/07/19 12:17:26;;;;;;;3.70;2.77;;;;;;;;;;5045830;28;20205;-78
2023/07/19 12:19:53;;;;;;;3.53;2.70;;;;;;;;;;5047182;28;20189;-78
2023/07/19 12:22:20;;;;;;;5.17;2.87;;;;;;;;;;5056433;28;20209;-78
2023/07/19 12:24:47;;;;;;;4.87;2.47;;;;;;;;;;5049297;28;20217;-78
2023/07/19 12:27:16;;;;;;;5.90;2.90;;;;;;;;;;5030464;28;20189;-78
2023/07/19 12:29:42;;;;;;;6.63;3.10;;;;;;;;;;5044439;28;20185;-78
2023/07/19 12:32:08;;;;;;;7.40;3.30;;;;;;;;;;5046005;28;20313;-78
2023/07/19 12:34:34;;;;;;;9.20;3.40;;;;;;;;;;5046047;28;20659;-78
2023/07/19 12:37:00;;;;;;;4.10;2.70;;;;;;;;;;5044475;28;20555;-78
2023/07/19 12:39:26;;;;;;;3.93;2.77;;;;;;;;;;5028346;28;20196;-78
2023/07/19 12:41:53;;;;;;;5.20;2.83;;;;;;;;;;5028443;28;20221;-78
2023/07/19 12:44:20;;;;;;;4.03;2.90;;;;;;;;;;5051292;28;20178;-78
2023/07/19 12:46:48;;;;;;;5.27;2.90;;;;;;;;;;5049182;28;20715;-79
2023/07/19 12:49:15;;;;;;;4.20;2.90;;;;;;;;;;5052666;28;20243;-78
2023/07/19 12:51:42;;;;;;;4.27;3.00;;;;;;;;;;5049603;28;20599;-78
2023/07/19 12:54:09;;;;;;;5.03;2.87;;;;;;;;;;5029054;28;20215;-78
2023/07/19 12:56:35;;;;;;;6.20;2.90;;;;;;;;;;5031451;28;20671;-78
2023/07/19 12:59:01;;;;;;;5.93;2.67;;;;;;;;;;5049540;28;20197;-79
2023/07/19 13:01:27;;;;;;;3.67;2.90;;;;;;;;;;5048801;28;20209;-79
2023/07/19 13:03:54;;;;;;;4.00;2.90;;;;;;;;;;5049936;28;20563;-79
2023/07/19 13:06:21;;;;;;;5.63;3.07;;;;;;;;;;5030598;28;20224;-79
2023/07/19 13:08:47;;;;;;;3.13;2.43;;;;;;;;;;5045716;28;20229;-79
2023/07/19 13:11:15;;;;;;;3.63;2.47;;;;;;;;;;5049538;28;20189;-79
2023/07/19 13:13:42;;;;;;;2.87;2.20;;;;;;;;;;5044753;28;20737;-79
2023/07/19 13:16:08;;;;;;;2.70;2.47;;;;;;;;;;5049304;28;20689;-79
2023/07/19 13:18:34;;;;;;;3.27;2.43;;;;;;;;;;5049697;28;20280;-78
2023/07/19 13:21:00;;;;;;;7.30;2.80;;;;;;;;;;5049068;28;20189;-79
2023/07/19 13:23:26;;;;;;;3.30;2.40;;;;;;;;;;5049575;28;20215;-79
2023/07/19 13:25:53;;;;;;;3.70;2.40;;;;;;;;;;5049280;28;20564;-79
2023/07/19 13:28:19;;;;;;;3.63;2.50;;;;;;;;;;5049753;28;20263;-79
2023/07/19 13:30:45;;;;;;;4.60;2.70;;;;;;;;;;5028117;28;20186;-79
2023/07/19 13:33:12;;;;;;;5.37;2.70;;;;;;;;;;5049620;28;20204;-79
2023/07/19 13:35:38;;;;;;;3.47;2.70;;;;;;;;;;5049342;28;20189;-79
2023/07/19 13:38:04;;;;;;;3.63;2.63;;;;;;;;;;5049831;28;20189;-79
2023/07/19 13:40:30;;;;;;;3.80;2.20;;;;;;;;;;5053623;28;20207;-79
2023/07/19 13:42:56;;;;;;;2.40;2.20;;;;;;;;;;5053191;28;20300;-79
2023/07/19 13:45:23;;;;;;;3.03;2.73;;;;;;;;;;5053190;28;20180;-79
2023/07/19 13:47:49;;;;;;;3.10;2.30;;;;;;;;;;5053082;28;20187;-78
2023/07/19 13:50:15;;;;;;;4.97;2.93;;;;;;;;;;5053242;28;20184;-78
2023/07/19 13:52:41;;;;;;;6.93;2.60;;;;;;;;;;5053331;28;20217;-78
2023/07/19 13:55:08;;;;;;;2.77;2.53;;;;;;;;;;5054204;28;20180;-79
2023/07/19 13:57:34;;;;;;;2.97;2.63;;;;;;;;;;5057246;28;20187;-74
2023/07/19 14:00:00;;;;;;;4.93;2.60;;;;;;;;;;5052953;28;20238;-75
2023/07/19 14:02:29;;;;;;;4.60;2.73;;;;;;;;;;5053186;28;20237;-75
2023/07/19 14:04:57;;;;;;;6.10;2.70;;;;;;;;;;5052247;28;20184;-75
2023/07/19 14:07:23;;;;;;;4.07;2.60;;;;;;;;;;5052321;28;20176;-75
2023/07/19 14:09:49;;;;;;;4.87;3.10;;;;;;;;;;5051834;28;20202;-77
2023/07/19 14:12:19;;;;;;;4.33;2.83;;;;;;;;;;5052896;28;20209;-76
2023/07/19 14:14:45;;;;;;;5.30;3.17;;;;;;;;;;5051387;28;20177;-76
2023/07/19 14:17:11;;;;;;;3.97;2.77;;;;;;;;;;5031338;28;20223;-76
2023/07/19 14:19:38;;;;;;;6.67;2.80;;;;;;;;;;5049071;28;20882;-77
2023/07/19 14:22:04;;;;;;;6.80;3.00;;;;;;;;;;5051674;28;20209;-78
2023/07/19 14:24:30;;;;;;;6.90;2.97;;;;;;;;;;5049216;28;20188;-77
2023/07/19 14:26:56;;;;;;;6.67;2.60;;;;;;;;;;5052075;28;20184;-77
2023/07/19 14:29:23;;;;;;;5.53;3.13;;;;;;;;;;5052622;28;20181;-77
2023/07/19 14:31:49;;;;;;;9.87;3.00;;;;;;;;;;5046797;28;20208;-77
2023/07/19 14:34:15;;;;;;;5.30;2.80;;;;;;;;;;5049643;28;20211;-76
2023/07/19 14:36:41;;;;;;;5.83;2.87;;;;;;;;;;5051712;28;20210;-76
2023/07/19 14:39:07;;;;;;;6.50;2.50;;;;;;;;;;5052107;28;20190;-76
2023/07/19 14:41:33;;;;;;;6.60;2.80;;;;;;;;;;5051683;28;20210;-75